createdAt,value
2018-12-29T00:00:33.956Z,38.79
2018-12-29T00:01:33.971Z,37.99
2018-12-29T00:02:33.886Z,38.60
2018-12-29T00:03:33.876Z,37.98
2018-12-29T00:04:33.900Z,37.79
2018-12-29T00:05:33.870Z,38.58
2018-12-29T00:06:33.842Z,38.49
2018-12-29T00:07:33.829Z,37.79
2018-12-29T00:08:33.816Z,37.79
2018-12-29T00:09:33.806Z,38.90
2018-12-29T00:10:33.823Z,37.79
2018-12-29T00:11:33.786Z,37.69
2018-12-29T00:12:33.779Z,37.79
2018-12-29T00:13:33.775Z,37.69
2018-12-29T00:14:33.756Z,37.99
2018-12-29T00:15:33.762Z,37.69
2018-12-29T00:16:33.733Z,38.70
2018-12-29T00:17:33.726Z,38.09
2018-12-29T00:18:33.764Z,39.10
2018-12-29T00:19:33.727Z,37.98
2018-12-29T00:20:33.710Z,37.99
2018-12-29T00:21:33.679Z,37.98
2018-12-29T00:22:33.687Z,38.29
2018-12-29T00:23:33.660Z,38.29
2018-12-29T00:24:33.650Z,37.98
2018-12-29T00:25:33.658Z,38.28
2018-12-29T00:26:33.628Z,38.29
2018-12-29T00:27:33.622Z,38.29
2018-12-29T00:28:33.610Z,38.60
2018-12-29T00:29:33.605Z,38.20
2018-12-29T00:30:33.624Z,38.79
2018-12-29T00:31:33.573Z,38.09
2018-12-29T00:32:33.639Z,38.09
2018-12-29T00:33:33.555Z,37.89
2018-12-29T00:34:33.549Z,38.40
2018-12-29T00:35:33.534Z,37.79
2018-12-29T00:36:33.542Z,37.69
2018-12-29T00:37:33.511Z,37.99
2018-12-29T00:38:33.502Z,38.90
2018-12-29T00:39:33.490Z,38.09
2018-12-29T00:40:33.484Z,38.90
2018-12-29T00:41:33.515Z,37.79
2018-12-29T00:42:33.459Z,37.89
2018-12-29T00:43:33.446Z,37.99
2018-12-29T00:44:33.440Z,37.99
2018-12-29T00:45:33.429Z,37.89
2018-12-29T00:46:33.435Z,38.70
2018-12-29T00:47:33.416Z,38.29
2018-12-29T00:48:33.393Z,37.99
2018-12-29T00:49:33.389Z,38.90
2018-12-29T00:50:33.384Z,38.09
2018-12-29T00:51:33.382Z,37.79
2018-12-29T00:52:33.352Z,38.20
2018-12-29T00:53:33.339Z,38.09
2018-12-29T00:54:33.333Z,38.29
2018-12-29T00:55:33.322Z,38.20
2018-12-29T00:56:33.330Z,37.99
2018-12-29T00:57:33.299Z,38.20
2018-12-29T00:58:33.289Z,37.69
2018-12-29T00:59:33.285Z,38.20
2018-12-29T01:00:33.274Z,38.29
2018-12-29T01:01:33.275Z,37.99
2018-12-29T01:02:33.246Z,38.20
2018-12-29T01:03:33.234Z,37.99
2018-12-29T01:04:33.231Z,38.90
2018-12-29T01:05:33.226Z,37.89
2018-12-29T01:06:33.224Z,37.89
2018-12-29T01:07:33.193Z,39.00
2018-12-29T01:08:33.183Z,38.20
2018-12-29T01:09:33.171Z,37.99
2018-12-29T01:10:33.160Z,38.09
2018-12-29T01:11:33.200Z,37.99
2018-12-29T01:12:33.141Z,38.09
2018-12-29T01:13:33.129Z,38.09
2018-12-29T01:14:33.122Z,37.79
2018-12-29T01:15:33.109Z,37.99
2018-12-29T01:16:33.115Z,37.99
2018-12-29T01:17:33.100Z,38.29
2018-12-29T01:18:33.075Z,38.09
2018-12-29T01:19:33.064Z,38.20
2018-12-29T01:20:33.053Z,38.29
2018-12-29T01:21:33.065Z,37.79
2018-12-29T01:22:33.033Z,38.09
2018-12-29T01:23:33.027Z,38.09
2018-12-29T01:24:33.021Z,38.09
2018-12-29T01:25:33.002Z,39.20
2018-12-29T01:26:33.010Z,37.89
2018-12-29T01:27:32.980Z,37.99
2018-12-29T01:28:32.971Z,38.29
2018-12-29T01:29:32.961Z,37.99
2018-12-29T01:30:32.949Z,38.29
2018-12-29T01:31:32.958Z,37.99
2018-12-29T01:32:32.937Z,38.09
2018-12-29T01:33:32.922Z,38.09
2018-12-29T01:34:32.907Z,38.09
2018-12-29T01:35:32.897Z,38.09
2018-12-29T01:36:32.912Z,37.69
2018-12-29T01:37:32.873Z,38.20
2018-12-29T01:38:32.868Z,38.29
2018-12-29T01:39:32.854Z,37.99
2018-12-29T01:40:32.844Z,38.60
2018-12-29T01:41:32.841Z,38.29
2018-12-29T01:42:32.851Z,38.40
2018-12-29T01:43:32.813Z,38.20
2018-12-29T01:44:32.800Z,38.49
2018-12-29T01:45:32.790Z,38.09
2018-12-29T01:46:32.778Z,38.09
2018-12-29T01:47:32.786Z,38.60
2018-12-29T01:48:32.765Z,38.49
2018-12-29T01:49:32.749Z,38.40
2018-12-29T01:50:32.739Z,38.20
2018-12-29T01:51:32.724Z,38.20
2018-12-29T01:52:32.735Z,38.60
2018-12-29T01:53:32.709Z,38.60
2018-12-29T01:54:32.696Z,38.40
2018-12-29T01:55:32.687Z,38.60
2018-12-29T01:56:32.673Z,37.89
2018-12-29T01:57:32.683Z,37.99
2018-12-29T01:58:32.652Z,37.99
2018-12-29T01:59:32.649Z,38.09
2018-12-29T02:00:32.629Z,38.09
2018-12-29T02:01:32.621Z,38.09
2018-12-29T02:02:32.609Z,39.00
2018-12-29T02:03:32.625Z,38.09
2018-12-29T02:04:32.589Z,37.79
2018-12-29T02:05:32.578Z,38.20
2018-12-29T02:06:32.571Z,38.29
2018-12-29T02:07:32.558Z,38.60
2018-12-29T02:08:32.566Z,37.99
2018-12-29T02:09:32.537Z,38.40
2018-12-29T02:10:32.525Z,38.09
2018-12-29T02:11:32.516Z,37.99
2018-12-29T02:12:32.510Z,38.20
2018-12-29T02:13:32.515Z,38.20
2018-12-29T02:14:32.480Z,38.20
2018-12-29T02:15:32.474Z,38.49
2018-12-29T02:16:32.464Z,38.09
2018-12-29T02:17:32.457Z,38.60
2018-12-29T02:18:32.439Z,38.70
2018-12-29T02:19:32.448Z,38.70
2018-12-29T02:20:32.419Z,38.20
2018-12-29T02:21:32.408Z,38.09
2018-12-29T02:22:32.397Z,38.40
2018-12-29T02:23:32.392Z,38.40
2018-12-29T02:24:32.393Z,38.49
2018-12-29T02:25:32.366Z,37.99
2018-12-29T02:26:32.354Z,38.29
2018-12-29T02:27:32.352Z,38.29
2018-12-29T02:28:32.335Z,38.29
2018-12-29T02:29:32.343Z,37.89
2018-12-29T02:30:32.313Z,38.29
2018-12-29T02:31:32.304Z,37.99
2018-12-29T02:32:32.292Z,37.99
2018-12-29T02:33:32.283Z,37.99
2018-12-29T02:34:32.295Z,38.29
2018-12-29T02:35:32.261Z,38.09
2018-12-29T02:36:32.249Z,38.40
2018-12-29T02:37:32.241Z,38.49
2018-12-29T02:38:32.226Z,38.49
2018-12-29T02:39:32.215Z,38.20
2018-12-29T02:40:32.228Z,38.20
2018-12-29T02:41:32.196Z,37.99
2018-12-29T02:42:32.185Z,38.20
2018-12-29T02:43:32.175Z,38.29
2018-12-29T02:44:32.180Z,38.20
2018-12-29T02:45:33.322Z,38.40
2018-12-29T02:46:32.145Z,38.60
2018-12-29T02:47:32.129Z,38.09
2018-12-29T02:48:32.120Z,38.29
2018-12-29T02:49:32.131Z,38.20
2018-12-29T02:50:32.098Z,38.20
2018-12-29T02:51:32.093Z,37.99
2018-12-29T02:52:32.079Z,38.20
2018-12-29T02:53:32.067Z,37.69
2018-12-29T02:54:32.083Z,38.29
2018-12-29T02:55:32.047Z,37.69
2018-12-29T02:56:32.035Z,38.60
2018-12-29T02:57:32.035Z,37.99
2018-12-29T02:58:32.019Z,38.60
2018-12-29T02:59:32.022Z,38.60
2018-12-29T03:00:32.009Z,37.99
2018-12-29T03:01:31.991Z,38.40
2018-12-29T03:02:31.984Z,38.40
2018-12-29T03:03:31.971Z,38.20
2018-12-29T03:04:31.968Z,38.60
2018-12-29T03:05:31.956Z,38.60
2018-12-29T03:06:31.939Z,38.20
2018-12-29T03:07:31.918Z,38.20
2018-12-29T03:08:31.910Z,38.29
2018-12-29T03:09:31.921Z,38.20
2018-12-29T03:10:31.894Z,38.79
2018-12-29T03:11:31.876Z,38.20
2018-12-29T03:12:31.865Z,38.60
2018-12-29T03:13:31.860Z,38.49
2018-12-29T03:14:31.852Z,38.60
2018-12-29T03:15:31.855Z,38.20
2018-12-29T03:16:31.826Z,38.29
2018-12-29T03:17:31.815Z,38.09
2018-12-29T03:18:31.810Z,38.29
2018-12-29T03:19:31.794Z,38.20
2018-12-29T03:20:31.801Z,38.20
2018-12-29T03:21:31.777Z,38.40
2018-12-29T03:22:31.763Z,37.79
2018-12-29T03:23:31.749Z,37.99
2018-12-29T03:24:31.737Z,38.20
2018-12-29T03:25:31.761Z,38.29
2018-12-29T03:26:31.718Z,38.09
2018-12-29T03:27:31.706Z,38.20
2018-12-29T03:28:31.701Z,37.99
2018-12-29T03:29:31.691Z,37.99
2018-12-29T03:30:31.694Z,38.29
2018-12-29T03:31:31.669Z,38.20
2018-12-29T03:32:31.675Z,38.20
2018-12-29T03:33:31.643Z,38.01
2018-12-29T03:34:31.636Z,38.40
2018-12-29T03:35:31.660Z,38.49
2018-12-29T03:36:31.613Z,38.40
2018-12-29T03:37:31.604Z,38.49
2018-12-29T03:38:31.595Z,38.29
2018-12-29T03:39:31.592Z,38.60
2018-12-29T03:40:31.574Z,38.49
2018-12-29T03:41:31.579Z,38.60
2018-12-29T03:42:31.547Z,38.70
2018-12-29T03:43:31.541Z,38.09
2018-12-29T03:44:31.533Z,38.09
2018-12-29T03:45:31.517Z,38.20
2018-12-29T03:46:31.524Z,38.20
2018-12-29T03:47:31.506Z,38.49
2018-12-29T03:48:31.488Z,38.09
2018-12-29T03:49:31.473Z,37.99
2018-12-29T03:50:31.465Z,38.60
2018-12-29T03:51:31.470Z,38.29
2018-12-29T03:52:31.447Z,37.99
2018-12-29T03:53:31.435Z,38.40
2018-12-29T03:54:31.431Z,38.29
2018-12-29T03:55:31.412Z,38.29
2018-12-29T03:56:31.441Z,39.20
2018-12-29T03:57:31.391Z,38.40
2018-12-29T03:58:31.382Z,38.20
2018-12-29T03:59:31.391Z,38.40
2018-12-29T04:00:31.364Z,38.20
2018-12-29T04:01:31.352Z,37.99
2018-12-29T04:02:31.800Z,38.29
2018-12-29T04:03:31.331Z,38.09
2018-12-29T04:04:31.316Z,38.09
2018-12-29T04:05:31.381Z,38.40
2018-12-29T04:06:31.295Z,38.40
2018-12-29T04:07:31.305Z,38.60
2018-12-29T04:08:31.278Z,38.49
2018-12-29T04:09:31.263Z,38.29
2018-12-29T04:10:31.250Z,38.60
2018-12-29T04:11:31.245Z,38.49
2018-12-29T04:12:31.250Z,38.49
2018-12-29T04:13:31.221Z,38.51
2018-12-29T04:14:31.208Z,38.01
2018-12-29T04:15:31.201Z,38.31
2018-12-29T04:16:31.193Z,38.31
2018-12-29T04:17:31.202Z,38.42
2018-12-29T04:18:31.169Z,38.31
2018-12-29T04:19:31.168Z,38.11
2018-12-29T04:20:31.143Z,38.11
2018-12-29T04:21:31.134Z,38.01
2018-12-29T04:22:31.125Z,37.81
2018-12-29T04:23:31.837Z,37.81
2018-12-29T04:24:31.102Z,38.11
2018-12-29T04:25:31.091Z,38.13
2018-12-29T04:26:31.084Z,38.13
2018-12-29T04:27:31.069Z,38.23
2018-12-29T04:28:31.077Z,38.33
2018-12-29T04:29:31.056Z,38.33
2018-12-29T04:30:31.038Z,38.33
2018-12-29T04:31:31.028Z,38.93
2018-12-29T04:32:31.024Z,39.03
2018-12-29T04:33:31.025Z,38.93
2018-12-29T04:34:30.997Z,39.14
2018-12-29T04:35:30.986Z,38.53
2018-12-29T04:36:30.978Z,38.53
2018-12-29T04:37:30.966Z,39.15
2018-12-29T04:38:30.973Z,39.14
2018-12-29T04:39:30.945Z,39.14
2018-12-29T04:40:30.938Z,38.83
2018-12-29T04:41:30.924Z,38.53
2018-12-29T04:42:30.910Z,38.73
2018-12-29T04:43:30.922Z,38.85
2018-12-29T04:44:30.889Z,39.14
2018-12-29T04:45:30.882Z,39.03
2018-12-29T04:46:30.868Z,38.83
2018-12-29T04:47:30.858Z,39.15
2018-12-29T04:48:30.847Z,39.03
2018-12-29T04:49:30.856Z,39.03
2018-12-29T04:50:30.829Z,39.34
2018-12-29T04:51:30.824Z,39.03
2018-12-29T04:52:30.805Z,39.03
2018-12-29T04:53:30.794Z,38.83
2018-12-29T04:54:30.804Z,38.73
2018-12-29T04:55:30.775Z,38.53
2018-12-29T04:56:30.762Z,38.31
2018-12-29T04:57:30.815Z,38.92
2018-12-29T04:58:30.766Z,38.92
2018-12-29T04:59:30.732Z,38.31
2018-12-29T05:00:30.720Z,38.01
2018-12-29T05:01:30.709Z,37.69
2018-12-29T05:02:30.709Z,38.79
2018-12-29T05:03:30.690Z,38.49
2018-12-29T05:04:30.701Z,38.49
2018-12-29T05:05:30.666Z,38.49
2018-12-29T05:06:30.655Z,38.58
2018-12-29T05:07:30.646Z,38.38
2018-12-29T05:08:30.636Z,38.28
2018-12-29T05:09:30.642Z,38.18
2018-12-29T05:10:30.615Z,38.60
2018-12-29T05:11:30.605Z,38.38
2018-12-29T05:12:30.602Z,38.18
2018-12-29T05:13:30.580Z,38.18
2018-12-29T05:14:30.596Z,38.18
2018-12-29T05:15:30.562Z,38.20
2018-12-29T05:16:30.550Z,38.49
2018-12-29T05:17:30.545Z,38.48
2018-12-29T05:18:30.527Z,38.58
2018-12-29T05:19:30.523Z,38.48
2018-12-29T05:20:30.544Z,38.28
2018-12-29T05:21:30.504Z,38.38
2018-12-29T05:22:30.484Z,38.68
2018-12-29T05:23:30.483Z,37.98
2018-12-29T05:24:30.479Z,38.18
2018-12-29T05:25:30.474Z,38.48
2018-12-29T05:26:30.475Z,37.87
2018-12-29T05:27:30.432Z,37.57
2018-12-29T05:28:30.437Z,37.55
2018-12-29T05:29:30.418Z,38.06
2018-12-29T05:30:30.420Z,37.85
2018-12-29T05:31:30.389Z,37.37
2018-12-29T05:32:30.409Z,37.87
2018-12-29T05:33:30.374Z,37.37
2018-12-29T05:34:30.360Z,37.76
2018-12-29T05:35:30.373Z,37.57
2018-12-29T05:36:30.358Z,38.07
2018-12-29T05:37:30.335Z,38.06
2018-12-29T05:38:30.319Z,37.57
2018-12-29T05:39:30.320Z,37.87
2018-12-29T05:40:30.339Z,37.87
2018-12-29T05:41:30.303Z,37.96
2018-12-29T05:42:30.277Z,37.37
2018-12-29T05:43:30.262Z,38.48
2018-12-29T05:44:30.265Z,38.58
2018-12-29T05:45:30.263Z,38.38
2018-12-29T05:46:30.234Z,38.07
2018-12-29T05:47:30.223Z,38.60
2018-12-29T05:48:30.220Z,38.18
2018-12-29T05:49:30.200Z,38.09
2018-12-29T05:50:30.197Z,38.20
2018-12-29T05:51:30.202Z,38.29
2018-12-29T05:52:30.184Z,38.29
2018-12-29T05:53:30.171Z,38.40
2018-12-29T05:54:30.146Z,38.29
2018-12-29T05:55:30.136Z,38.29
2018-12-29T05:56:30.148Z,38.79
2018-12-29T05:57:30.116Z,38.09
2018-12-29T05:58:30.104Z,38.09
2018-12-29T05:59:30.097Z,37.79
2018-12-29T06:00:30.084Z,38.01
2018-12-29T06:01:30.090Z,38.71
2018-12-29T06:02:30.062Z,38.21
2018-12-29T06:03:30.051Z,38.31
2018-12-29T06:04:30.039Z,38.92
2018-12-29T06:05:30.037Z,39.12
2018-12-29T06:06:30.039Z,38.31
2018-12-29T06:07:30.015Z,38.51
2018-12-29T06:08:29.999Z,38.51
2018-12-29T06:09:29.991Z,38.51
2018-12-29T06:10:29.977Z,38.51
2018-12-29T06:11:29.990Z,38.51
2018-12-29T06:12:29.958Z,38.51
2018-12-29T06:13:29.963Z,38.51
2018-12-29T06:14:29.949Z,38.51
2018-12-29T06:15:29.943Z,38.42
2018-12-29T06:16:29.956Z,38.31
2018-12-29T06:17:29.918Z,38.31
2018-12-29T06:18:29.894Z,39.12
2018-12-29T06:19:29.883Z,38.81
2018-12-29T06:20:29.894Z,38.92
2018-12-29T06:21:29.883Z,39.01
2018-12-29T06:22:29.890Z,38.31
2018-12-29T06:23:29.846Z,39.12
2018-12-29T06:24:29.829Z,38.62
2018-12-29T06:25:29.830Z,39.01
2018-12-29T06:26:29.814Z,38.71
2018-12-29T06:27:29.828Z,38.92
2018-12-29T06:28:29.790Z,38.92
2018-12-29T06:29:29.784Z,38.29
2018-12-29T06:30:29.768Z,38.29
2018-12-29T06:31:29.752Z,38.40
2018-12-29T06:32:29.762Z,38.20
2018-12-29T06:33:29.743Z,38.60
2018-12-29T06:34:29.728Z,39.30
2018-12-29T06:35:29.718Z,38.20
2018-12-29T06:36:29.727Z,38.40
2018-12-29T06:37:29.731Z,37.87
2018-12-29T06:38:29.679Z,38.49
2018-12-29T06:39:29.669Z,38.48
2018-12-29T06:40:29.665Z,38.48
2018-12-29T06:41:29.654Z,38.28
2018-12-29T06:42:29.661Z,38.07
2018-12-29T06:43:29.652Z,37.98
2018-12-29T06:44:29.667Z,38.29
2018-12-29T06:45:29.611Z,38.20
2018-12-29T06:46:34.969Z,37.79
2018-12-29T06:47:30.586Z,38.90
2018-12-29T06:48:29.616Z,38.09
2018-12-29T06:49:29.562Z,37.99
2018-12-29T06:50:29.562Z,38.09
2018-12-29T06:51:29.550Z,39.20
2018-12-29T06:52:29.530Z,37.99
2018-12-29T06:53:29.546Z,39.00
2018-12-29T06:54:29.518Z,39.20
2018-12-29T06:55:29.502Z,39.20
2018-12-29T06:56:29.494Z,38.79
2018-12-29T06:57:29.482Z,37.99
2018-12-29T06:58:29.485Z,38.09
2018-12-29T06:59:29.455Z,37.99
2018-12-29T07:00:29.446Z,39.20
2018-12-29T07:01:29.499Z,39.30
2018-12-29T07:02:29.423Z,38.20
2018-12-29T07:03:29.437Z,37.89
2018-12-29T07:04:29.407Z,38.20
2018-12-29T07:05:29.398Z,38.09
2018-12-29T07:06:29.389Z,37.99
2018-12-29T07:07:29.374Z,38.09
2018-12-29T07:08:29.363Z,38.09
2018-12-29T07:09:29.422Z,38.07
2018-12-29T07:10:29.339Z,38.28
2018-12-29T07:11:29.329Z,38.28
2018-12-29T07:12:29.329Z,38.28
2018-12-29T07:13:29.314Z,38.29
2018-12-29T07:14:29.315Z,38.20
2018-12-29T07:15:29.299Z,38.09
2018-12-29T07:16:29.280Z,38.40
2018-12-29T07:17:29.265Z,37.99
2018-12-29T07:18:29.258Z,37.99
2018-12-29T07:19:29.270Z,38.09
2018-12-29T07:20:29.235Z,37.99
2018-12-29T07:21:29.227Z,37.69
2018-12-29T07:22:29.216Z,37.99
2018-12-29T07:23:29.207Z,38.20
2018-12-29T07:24:29.193Z,38.60
2018-12-29T07:25:29.200Z,37.99
2018-12-29T07:26:29.171Z,38.29
2018-12-29T07:27:29.159Z,38.42
2018-12-29T07:28:29.149Z,38.81
2018-12-29T07:29:29.158Z,38.92
2018-12-29T07:30:29.149Z,38.71
2018-12-29T07:31:29.115Z,38.92
2018-12-29T07:32:29.106Z,39.32
2018-12-29T07:33:29.105Z,39.12
2018-12-29T07:34:29.127Z,39.22
2018-12-29T07:35:29.879Z,39.12
2018-12-29T07:36:29.071Z,39.01
2018-12-29T07:37:29.052Z,38.71
2018-12-29T07:38:29.042Z,39.12
2018-12-29T07:39:29.059Z,39.12
2018-12-29T07:40:29.054Z,39.12
2018-12-29T07:41:29.020Z,39.12
2018-12-29T07:42:29.008Z,39.12
2018-12-29T07:43:28.991Z,39.01
2018-12-29T07:44:28.979Z,39.01
2018-12-29T07:45:28.967Z,39.01
2018-12-29T07:46:28.978Z,38.92
2018-12-29T07:47:28.948Z,39.22
2018-12-29T07:48:28.962Z,38.71
2018-12-29T07:49:28.929Z,39.01
2018-12-29T07:50:28.922Z,39.12
2018-12-29T07:51:28.929Z,38.92
2018-12-29T07:52:28.903Z,39.12
2018-12-29T07:53:28.885Z,39.01
2018-12-29T07:54:28.879Z,39.32
2018-12-29T07:55:28.862Z,39.12
2018-12-29T07:56:28.869Z,38.92
2018-12-29T07:57:28.840Z,38.81
2018-12-29T07:58:28.903Z,38.49
2018-12-29T07:59:28.829Z,38.60
2018-12-29T08:00:28.811Z,38.79
2018-12-29T08:01:28.823Z,38.70
2018-12-29T08:02:28.792Z,38.29
2018-12-29T08:03:28.777Z,38.09
2018-12-29T08:04:28.767Z,39.00
2018-12-29T08:05:28.756Z,38.18
2018-12-29T08:06:28.760Z,38.29
2018-12-29T08:07:28.755Z,38.09
2018-12-29T08:08:28.722Z,39.00
2018-12-29T08:09:28.711Z,38.07
2018-12-29T08:10:28.705Z,38.88
2018-12-29T08:11:28.696Z,37.98
2018-12-29T08:12:28.699Z,37.98
2018-12-29T08:13:28.689Z,38.07
2018-12-29T08:14:28.665Z,39.18
2018-12-29T08:15:28.656Z,38.98
2018-12-29T08:16:28.647Z,39.20
2018-12-29T08:17:28.647Z,38.20
2018-12-29T08:18:28.643Z,38.38
2018-12-29T08:19:28.623Z,37.87
2018-12-29T08:20:28.596Z,38.18
2018-12-29T08:21:28.584Z,39.20
2018-12-29T08:22:28.607Z,38.18
2018-12-29T08:23:28.589Z,37.98
2018-12-29T08:24:28.603Z,37.98
2018-12-29T08:25:28.542Z,38.07
2018-12-29T08:26:28.535Z,37.77
2018-12-29T08:27:28.545Z,37.77
2018-12-29T08:28:28.519Z,38.28
2018-12-29T08:29:28.565Z,38.07
2018-12-29T08:30:28.491Z,37.67
2018-12-29T08:31:28.488Z,38.28
2018-12-29T08:32:28.496Z,38.28
2018-12-29T08:33:28.461Z,38.18
2018-12-29T08:34:28.458Z,38.18
2018-12-29T08:35:28.437Z,37.98
2018-12-29T08:36:28.430Z,37.98
2018-12-29T08:37:28.420Z,38.28
2018-12-29T08:38:28.424Z,38.38
2018-12-29T08:39:28.393Z,38.36
2018-12-29T08:40:28.392Z,37.98
2018-12-29T08:41:28.375Z,37.98
2018-12-29T08:42:28.387Z,38.18
2018-12-29T08:43:28.352Z,38.38
2018-12-29T08:44:28.353Z,38.28
2018-12-29T08:45:28.338Z,38.28
2018-12-29T08:46:28.318Z,38.07
2018-12-29T08:47:28.310Z,38.98
2018-12-29T08:48:28.322Z,38.07
2018-12-29T08:49:28.286Z,38.88
2018-12-29T08:50:28.297Z,38.68
2018-12-29T08:51:28.269Z,38.40
2018-12-29T08:52:28.259Z,38.09
2018-12-29T08:53:28.265Z,38.20
2018-12-29T08:54:28.232Z,38.40
2018-12-29T08:55:29.925Z,38.40
2018-12-29T08:56:28.249Z,38.79
2018-12-29T08:57:28.202Z,39.10
2018-12-29T08:58:28.224Z,38.60
2018-12-29T08:59:28.191Z,38.40
2018-12-29T09:00:28.188Z,38.92
2018-12-29T09:01:28.158Z,39.32
2018-12-29T09:02:28.165Z,38.92
2018-12-29T09:03:28.155Z,39.12
2018-12-29T09:04:28.129Z,38.62
2018-12-29T09:05:28.117Z,39.01
2018-12-29T09:06:28.109Z,39.22
2018-12-29T09:07:28.127Z,39.32
2018-12-29T09:08:28.120Z,39.32
2018-12-29T09:09:28.090Z,39.22
2018-12-29T09:10:28.069Z,39.32
2018-12-29T09:11:28.058Z,39.32
2018-12-29T09:12:28.041Z,39.01
2018-12-29T09:13:28.107Z,39.32
2018-12-29T09:14:28.055Z,39.22
2018-12-29T09:15:28.031Z,39.32
2018-12-29T09:16:28.005Z,39.12
2018-12-29T09:17:27.989Z,39.32
2018-12-29T09:18:27.977Z,39.52
2018-12-29T09:19:28.015Z,39.22
2018-12-29T09:20:27.962Z,39.12
2018-12-29T09:21:27.950Z,39.62
2018-12-29T09:22:27.936Z,39.32
2018-12-29T09:23:27.926Z,39.32
2018-12-29T09:24:27.938Z,39.22
2018-12-29T09:25:27.911Z,38.81
2018-12-29T09:26:27.899Z,38.79
2018-12-29T09:27:27.888Z,38.90
2018-12-29T09:28:27.882Z,39.10
2018-12-29T09:29:27.867Z,39.01
2018-12-29T09:30:27.915Z,39.10
2018-12-29T09:31:27.843Z,38.90
2018-12-29T09:32:27.847Z,38.29
2018-12-29T09:33:27.822Z,38.29
2018-12-29T09:34:27.816Z,39.40
2018-12-29T09:35:27.817Z,38.40
2018-12-29T09:36:27.788Z,38.70
2018-12-29T09:37:27.785Z,38.28
2018-12-29T09:38:27.766Z,37.67
2018-12-29T09:39:27.760Z,38.88
2018-12-29T09:40:27.768Z,37.99
2018-12-29T09:41:27.746Z,39.10
2018-12-29T09:42:27.726Z,38.79
2018-12-29T09:43:27.726Z,38.78
2018-12-29T09:44:27.701Z,38.68
2018-12-29T09:45:27.720Z,37.77
2018-12-29T09:46:27.727Z,38.88
2018-12-29T09:47:27.671Z,38.38
2018-12-29T09:48:27.671Z,38.07
2018-12-29T09:49:27.651Z,38.18
2018-12-29T09:50:27.662Z,38.07
2018-12-29T09:51:27.630Z,38.58
2018-12-29T09:52:27.617Z,38.28
2018-12-29T09:53:27.638Z,38.79
2018-12-29T09:54:27.596Z,38.79
2018-12-29T09:55:27.609Z,38.88
2018-12-29T09:56:27.578Z,38.78
2018-12-29T09:57:27.566Z,38.58
2018-12-29T09:58:27.554Z,38.88
2018-12-29T09:59:27.551Z,38.98
2018-12-29T10:00:27.554Z,38.78
2018-12-29T10:01:27.530Z,38.58
2018-12-29T10:02:27.510Z,38.48
2018-12-29T10:03:27.500Z,38.88
2018-12-29T10:04:27.488Z,39.08
2018-12-29T10:05:27.498Z,38.98
2018-12-29T10:06:27.469Z,39.08
2018-12-29T10:07:27.463Z,38.58
2018-12-29T10:08:27.448Z,39.28
2018-12-29T10:09:27.440Z,39.38
2018-12-29T10:10:27.445Z,39.88
2018-12-29T10:11:27.448Z,39.08
2018-12-29T10:12:27.406Z,39.69
2018-12-29T10:13:27.425Z,39.40
2018-12-29T10:14:27.385Z,39.50
2018-12-29T10:15:27.437Z,39.70
2018-12-29T10:16:27.362Z,40.11
2018-12-29T10:17:28.761Z,39.20
2018-12-29T10:18:27.342Z,39.40
2018-12-29T10:19:27.334Z,39.70
2018-12-29T10:20:27.328Z,40.30
2018-12-29T10:21:27.326Z,39.90
2018-12-29T10:22:27.300Z,40.00
2018-12-29T10:23:27.290Z,40.00
2018-12-29T10:24:27.277Z,40.61
2018-12-29T10:25:27.272Z,40.12
2018-12-29T10:26:27.280Z,40.12
2018-12-29T10:27:27.245Z,39.92
2018-12-29T10:28:27.234Z,39.62
2018-12-29T10:29:27.239Z,40.12
2018-12-29T10:30:27.234Z,39.92
2018-12-29T10:31:27.213Z,40.33
2018-12-29T10:32:27.192Z,40.02
2018-12-29T10:33:27.228Z,39.82
2018-12-29T10:34:27.185Z,39.72
2018-12-29T10:35:27.185Z,39.62
2018-12-29T10:36:27.150Z,39.92
2018-12-29T10:37:27.144Z,39.62
2018-12-29T10:38:27.133Z,39.72
2018-12-29T10:39:27.119Z,39.52
2018-12-29T10:40:27.134Z,39.62
2018-12-29T10:41:27.105Z,39.42
2018-12-29T10:42:27.084Z,39.52
2018-12-29T10:43:27.082Z,39.62
2018-12-29T10:44:27.069Z,39.42
2018-12-29T10:45:27.058Z,39.82
2018-12-29T10:46:27.067Z,39.72
2018-12-29T10:47:34.320Z,39.42
2018-12-29T10:48:28.043Z,39.22
2018-12-29T10:49:27.011Z,39.32
2018-12-29T10:50:27.026Z,39.42
2018-12-29T10:51:27.006Z,39.42
2018-12-29T10:52:26.980Z,39.40
2018-12-29T10:53:26.970Z,39.82
2018-12-29T10:54:26.970Z,39.82
2018-12-29T10:55:26.947Z,39.42
2018-12-29T10:56:26.958Z,39.22
2018-12-29T10:57:26.926Z,40.12
2018-12-29T10:58:26.915Z,39.40
2018-12-29T10:59:26.924Z,39.72
2018-12-29T11:00:26.921Z,39.82
2018-12-29T11:01:26.907Z,39.32
2018-12-29T11:02:26.929Z,39.72
2018-12-29T11:03:26.871Z,39.32
2018-12-29T11:04:26.851Z,39.92
2018-12-29T11:05:26.846Z,39.82
2018-12-29T11:06:26.833Z,39.42
2018-12-29T11:07:26.839Z,39.72
2018-12-29T11:08:26.814Z,39.32
2018-12-29T11:09:26.801Z,39.62
2018-12-29T11:10:26.787Z,39.92
2018-12-29T11:11:26.779Z,39.92
2018-12-29T11:12:26.815Z,40.62
2018-12-29T11:13:26.759Z,40.22
2018-12-29T11:14:26.749Z,40.12
2018-12-29T11:15:26.735Z,39.82
2018-12-29T11:16:26.723Z,40.53
2018-12-29T11:17:26.753Z,39.92
2018-12-29T11:18:26.704Z,40.53
2018-12-29T11:19:26.692Z,40.33
2018-12-29T11:20:26.682Z,41.13
2018-12-29T11:21:26.681Z,40.22
2018-12-29T11:22:26.678Z,40.02
2018-12-29T11:24:04.003Z,40.73
2018-12-29T11:24:26.654Z,40.92
2018-12-29T11:25:26.628Z,41.23
2018-12-29T11:26:26.617Z,41.13
2018-12-29T11:27:26.633Z,41.13
2018-12-29T11:28:26.600Z,41.43
2018-12-29T11:29:26.602Z,41.33
2018-12-29T11:30:26.596Z,41.51
2018-12-29T11:31:26.564Z,41.23
2018-12-29T11:32:26.586Z,41.53
2018-12-29T11:33:26.572Z,41.01
2018-12-29T11:34:26.533Z,40.91
2018-12-29T11:35:28.931Z,41.21
2018-12-29T11:36:26.516Z,41.01
2018-12-29T11:37:26.548Z,41.21
2018-12-29T11:38:26.506Z,40.89
2018-12-29T11:39:26.503Z,41.39
2018-12-29T11:40:26.484Z,40.69
2018-12-29T11:41:26.482Z,41.19
2018-12-29T11:42:26.454Z,42.10
2018-12-29T11:43:26.455Z,41.97
2018-12-29T11:44:26.460Z,42.49
2018-12-29T11:45:26.425Z,42.49
2018-12-29T11:46:26.417Z,41.39
2018-12-29T11:47:26.395Z,41.77
2018-12-29T11:48:26.404Z,41.39
2018-12-29T11:49:26.388Z,41.17
2018-12-29T11:50:26.362Z,41.69
2018-12-29T11:51:26.358Z,41.39
2018-12-29T11:52:26.356Z,41.47
2018-12-29T11:53:26.354Z,41.29
2018-12-29T11:54:26.323Z,41.97
2018-12-29T11:55:26.313Z,41.77
2018-12-29T11:56:26.315Z,41.77
2018-12-29T11:57:26.296Z,41.79
2018-12-29T11:58:26.301Z,41.59
2018-12-29T11:59:26.306Z,41.97
2018-12-29T12:00:26.259Z,41.87
2018-12-29T12:01:26.249Z,42.58
2018-12-29T12:02:26.237Z,42.58
2018-12-29T12:03:26.248Z,41.87
2018-12-29T12:04:26.214Z,41.87
2018-12-29T12:05:26.206Z,41.77
2018-12-29T12:06:26.204Z,42.18
2018-12-29T12:07:26.182Z,42.58
2018-12-29T12:08:26.205Z,42.07
2018-12-29T12:09:26.158Z,42.07
2018-12-29T12:10:26.150Z,42.68
2018-12-29T12:11:26.149Z,43.08
2018-12-29T12:12:26.132Z,42.58
2018-12-29T12:13:26.187Z,42.27
2018-12-29T12:14:26.108Z,42.58
2018-12-29T12:15:26.108Z,42.97
2018-12-29T12:16:26.086Z,42.78
2018-12-29T12:17:26.079Z,43.00
2018-12-29T12:18:26.093Z,43.08
2018-12-29T12:19:26.138Z,42.78
2018-12-29T12:20:26.047Z,43.28
2018-12-29T12:21:26.038Z,42.78
2018-12-29T12:22:26.031Z,43.00
2018-12-29T12:23:26.057Z,43.20
2018-12-29T12:24:26.002Z,43.08
2018-12-29T12:25:26.029Z,43.38
2018-12-29T12:26:25.981Z,43.60
2018-12-29T12:27:25.974Z,43.50
2018-12-29T12:28:25.980Z,43.60
2018-12-29T12:29:25.977Z,43.60
2018-12-29T12:30:25.938Z,43.00
2018-12-29T12:31:25.926Z,43.50
2018-12-29T12:32:25.920Z,43.50
2018-12-29T12:33:25.913Z,43.50
2018-12-29T12:34:25.915Z,43.20
2018-12-29T12:35:25.890Z,43.70
2018-12-29T12:36:25.883Z,43.50
2018-12-29T12:37:25.875Z,43.40
2018-12-29T12:38:25.853Z,43.70
2018-12-29T12:39:25.868Z,43.50
2018-12-29T12:40:25.845Z,43.20
2018-12-29T12:41:25.819Z,43.20
2018-12-29T12:42:25.831Z,43.50
2018-12-29T12:43:25.833Z,42.90
2018-12-29T12:44:25.788Z,43.20
2018-12-29T12:45:25.799Z,43.20
2018-12-29T12:46:25.768Z,43.00
2018-12-29T12:47:25.759Z,43.10
2018-12-29T12:48:25.749Z,42.80
2018-12-29T12:49:25.739Z,43.40
2018-12-29T12:50:25.742Z,43.30
2018-12-29T12:51:25.718Z,43.00
2018-12-29T12:52:25.702Z,42.30